createdAt,value
2023-09-15T00:00:21.277Z,21.27
2023-09-15T00:02:56.516Z,21.40
2023-09-15T00:05:29.594Z,21.35
2023-09-15T00:07:59.328Z,21.40
2023-09-15T00:10:34.998Z,21.43
2023-09-15T00:13:10.985Z,21.34
2023-09-15T00:15:43.586Z,21.31
2023-09-15T00:18:11.970Z,21.30
2023-09-15T00:20:42.643Z,21.31
2023-09-15T00:23:10.965Z,21.25
2023-09-15T00:25:41.823Z,21.18
2023-09-15T00:28:14.901Z,21.20
2023-09-15T00:30:44.634Z,21.23
2023-09-15T00:33:13.161Z,21.21
2023-09-15T00:35:41.459Z,21.17
2023-09-15T00:38:10.543Z,21.18
2023-09-15T00:40:38.945Z,21.16
2023-09-15T00:43:07.435Z,21.15
2023-09-15T00:45:39.497Z,21.11
2023-09-15T00:48:13.454Z,21.05
2023-09-15T00:50:44.908Z,21.01
2023-09-15T00:53:17.527Z,21.01
2023-09-15T00:55:46.193Z,21.00
2023-09-15T00:58:14.660Z,20.96
2023-09-15T01:00:43.932Z,20.97
2023-09-15T01:03:15.945Z,21.01
2023-09-15T01:05:46.531Z,20.97
2023-09-15T01:08:14.951Z,20.99
2023-09-15T01:10:43.276Z,20.94
2023-09-15T01:13:12.090Z,20.88
2023-09-15T01:15:48.574Z,20.94
2023-09-15T01:18:28.173Z,20.96
2023-09-15T01:22:02.678Z,20.90
2023-09-15T01:25:28.210Z,20.80
2023-09-15T01:28:48.384Z,20.89
2023-09-15T01:31:19.761Z,20.79
2023-09-15T01:33:51.351Z,20.78
2023-09-15T01:36:28.662Z,20.86
2023-09-15T01:38:59.096Z,20.81
2023-09-15T01:41:27.429Z,20.82
2023-09-15T01:43:58.557Z,20.80
2023-09-15T01:46:34.553Z,20.80
2023-09-15T01:49:06.526Z,20.71
2023-09-15T01:51:38.233Z,20.76
2023-09-15T01:54:07.068Z,20.73
2023-09-15T01:56:38.395Z,20.70
2023-09-15T01:59:09.484Z,20.69
2023-09-15T02:01:39.176Z,20.67
2023-09-15T02:04:12.460Z,20.68
2023-09-15T02:06:40.772Z,20.62
2023-09-15T02:09:11.360Z,20.60
2023-09-15T02:11:39.636Z,20.61
2023-09-15T02:14:11.029Z,20.47
2023-09-15T02:16:46.716Z,20.51
2023-09-15T02:19:15.132Z,20.46
2023-09-15T02:21:43.489Z,20.46
2023-09-15T02:24:14.781Z,20.46
2023-09-15T02:26:47.110Z,20.48
2023-09-15T02:29:17.274Z,20.56
2023-09-15T02:31:46.952Z,20.49
2023-09-15T02:34:15.325Z,20.45
2023-09-15T02:36:45.067Z,20.43
2023-09-15T02:39:13.430Z,20.48
2023-09-15T02:41:41.714Z,20.37
2023-09-15T02:44:10.864Z,20.35
2023-09-15T02:46:39.460Z,20.33
2023-09-15T02:49:09.506Z,20.33
2023-09-15T02:51:38.435Z,20.33
2023-09-15T02:54:07.523Z,20.35
2023-09-15T02:56:35.888Z,20.38
2023-09-15T02:59:12.231Z,20.35
2023-09-15T03:01:40.661Z,20.38
2023-09-15T03:04:13.321Z,20.30
2023-09-15T03:06:42.385Z,20.21
2023-09-15T03:09:13.546Z,20.10
2023-09-15T03:11:41.852Z,20.20
2023-09-15T03:14:13.899Z,20.21
2023-09-15T03:16:44.560Z,20.26
2023-09-15T03:19:14.474Z,20.20
2023-09-15T03:21:49.018Z,20.24
2023-09-15T03:24:17.568Z,20.17
2023-09-15T03:26:46.231Z,20.16
2023-09-15T03:29:14.614Z,20.19
2023-09-15T03:31:43.035Z,20.12
2023-09-15T03:34:13.904Z,20.16
2023-09-15T03:36:51.743Z,20.13
2023-09-15T03:39:34.847Z,20.12
2023-09-15T03:42:09.507Z,20.12
2023-09-15T03:44:40.655Z,20.11
2023-09-15T03:47:10.938Z,20.05
2023-09-15T03:49:45.374Z,20.04
2023-09-15T03:52:15.190Z,19.98
2023-09-15T03:54:46.360Z,19.94
2023-09-15T03:57:14.971Z,20.00
2023-09-15T03:59:43.286Z,19.99
2023-09-15T04:02:14.729Z,19.98
2023-09-15T04:04:45.968Z,19.94
2023-09-15T04:07:15.719Z,19.86
2023-09-15T04:09:44.004Z,19.84
2023-09-15T04:12:12.330Z,19.89
2023-09-15T04:14:40.605Z,19.88
2023-09-15T04:17:13.259Z,19.76
2023-09-15T04:19:41.641Z,19.80
2023-09-15T04:22:09.945Z,19.77
2023-09-15T04:24:39.601Z,19.83
2023-09-15T04:27:07.953Z,19.82
2023-09-15T04:29:54.226Z,19.82
2023-09-15T04:32:25.172Z,19.83
2023-09-15T04:34:53.958Z,19.88
2023-09-15T04:37:23.153Z,19.81
2023-09-15T04:39:55.100Z,19.79
2023-09-15T04:42:32.205Z,19.82
2023-09-15T04:45:08.126Z,19.75
2023-09-15T04:47:43.170Z,19.70
2023-09-15T04:50:14.047Z,19.67
2023-09-15T04:52:45.175Z,19.68
2023-09-15T04:55:14.859Z,19.64
2023-09-15T04:57:43.171Z,19.70
2023-09-15T05:00:14.515Z,19.69
2023-09-15T05:02:50.403Z,19.66
2023-09-15T05:05:19.144Z,19.63
2023-09-15T05:07:50.613Z,19.65
2023-09-15T05:10:26.748Z,19.68
2023-09-15T05:13:02.112Z,19.64
2023-09-15T05:15:33.558Z,19.70
2023-09-15T05:18:01.979Z,19.74
2023-09-15T05:20:30.325Z,19.66
2023-09-15T05:25:50.465Z,19.65
2023-09-15T05:28:21.535Z,19.59
2023-09-15T05:31:01.296Z,19.67
2023-09-15T05:33:29.738Z,19.62
2023-09-15T05:36:00.470Z,19.70
2023-09-15T05:38:29.455Z,19.72
2023-09-15T05:40:59.126Z,19.83
2023-09-15T05:43:30.467Z,20.51
2023-09-15T05:46:02.065Z,21.07
2023-09-15T05:48:42.685Z,21.43
2023-09-15T05:51:14.250Z,21.67
2023-09-15T05:53:42.729Z,21.88
2023-09-15T05:56:12.440Z,22.07
2023-09-15T05:58:43.743Z,22.18
2023-09-15T06:01:12.101Z,22.28
2023-09-15T06:03:43.825Z,22.41
2023-09-15T06:06:12.168Z,22.59
2023-09-15T06:08:40.441Z,22.76
2023-09-15T06:11:13.511Z,22.96
2023-09-15T06:13:42.615Z,23.08
2023-09-15T06:16:14.586Z,23.33
2023-09-15T06:18:42.962Z,23.45
2023-09-15T06:21:11.250Z,23.41
2023-09-15T06:23:42.558Z,23.54
2023-09-15T06:26:15.309Z,23.69
2023-09-15T06:28:43.629Z,23.82
2023-09-15T06:31:12.061Z,23.81
2023-09-15T06:33:43.601Z,23.92
2023-09-15T06:36:11.929Z,23.46
2023-09-15T06:38:40.706Z,23.83
2023-09-15T06:41:11.825Z,21.53
2023-09-15T06:43:47.279Z,22.26
2023-09-15T06:46:22.442Z,21.45
2023-09-15T06:51:38.915Z,22.49
2023-09-15T06:54:13.757Z,22.53
2023-09-15T06:56:44.856Z,20.43
2023-09-15T06:59:14.510Z,19.08
2023-09-15T07:01:48.674Z,20.72
2023-09-15T07:04:20.478Z,21.06
2023-09-15T07:06:51.625Z,20.20
2023-09-15T07:09:23.308Z,19.97
2023-09-15T07:11:57.553Z,20.88
2023-09-15T07:14:27.275Z,21.62
2023-09-15T07:16:55.971Z,20.18
2023-09-15T07:19:27.451Z,20.31
2023-09-15T07:21:55.830Z,20.75
2023-09-15T07:24:24.174Z,20.66
2023-09-15T07:27:06.557Z,20.47
2023-09-15T07:29:42.473Z,21.44
2023-09-15T07:32:10.808Z,21.24
2023-09-15T07:34:42.021Z,21.32
2023-09-15T07:37:13.890Z,22.67
2023-09-15T07:39:51.648Z,22.20
2023-09-15T07:42:25.802Z,20.45
2023-09-15T07:44:58.460Z,21.08
2023-09-15T07:47:29.859Z,22.26
2023-09-15T07:50:04.547Z,22.02
2023-09-15T07:52:39.047Z,21.69
2023-09-15T07:55:08.614Z,21.91
2023-09-15T07:57:38.564Z,22.22
2023-09-15T08:00:12.478Z,21.91
2023-09-15T08:02:47.244Z,21.58
2023-09-15T08:05:15.924Z,22.68
2023-09-15T08:07:50.689Z,21.53
2023-09-15T08:10:23.523Z,21.79
2023-09-15T08:12:55.225Z,22.47
2023-09-15T08:15:32.389Z,23.16
2023-09-15T08:18:02.681Z,23.18
2023-09-15T08:20:31.176Z,22.63
2023-09-15T08:23:00.046Z,22.13
2023-09-15T08:25:28.804Z,22.40
2023-09-15T08:27:57.194Z,22.97
2023-09-15T08:30:27.019Z,22.79
2023-09-15T08:32:58.481Z,22.80
2023-09-15T08:35:27.225Z,21.62
2023-09-15T08:38:01.333Z,22.63
2023-09-15T08:40:50.848Z,23.12
2023-09-15T08:43:23.295Z,23.13
2023-09-15T08:45:55.144Z,22.71
2023-09-15T08:48:40.894Z,23.26
2023-09-15T08:51:10.101Z,23.50
2023-09-15T08:53:39.065Z,23.70
2023-09-15T08:56:08.065Z,24.34
2023-09-15T08:58:37.073Z,23.53
2023-09-15T09:01:17.242Z,23.73
2023-09-15T09:03:45.926Z,24.48
2023-09-15T09:06:15.595Z,24.52
2023-09-15T09:08:47.317Z,23.86
2023-09-15T09:11:15.961Z,23.44
2023-09-15T09:13:53.854Z,23.96
2023-09-15T09:16:24.758Z,23.28
2023-09-15T09:19:05.271Z,23.66
2023-09-15T09:21:35.541Z,22.53
2023-09-15T09:24:11.627Z,23.43
2023-09-15T09:26:40.558Z,24.58
2023-09-15T09:29:11.772Z,24.62
2023-09-15T09:31:41.852Z,24.49
2023-09-15T09:34:34.894Z,24.46
2023-09-15T09:37:08.719Z,23.93
2023-09-15T09:39:37.653Z,23.19
2023-09-15T09:42:13.261Z,23.95
2023-09-15T09:44:41.635Z,23.70
2023-09-15T09:47:12.337Z,24.38
2023-09-15T09:49:42.710Z,23.95
2023-09-15T09:52:14.479Z,23.06
2023-09-15T09:54:45.925Z,24.25
2023-09-15T09:57:16.795Z,24.85
2023-09-15T09:59:46.329Z,24.93
2023-09-15T10:02:16.093Z,24.14
2023-09-15T10:04:44.384Z,24.47
2023-09-15T10:07:14.132Z,23.92
2023-09-15T10:09:51.242Z,24.43
2023-09-15T10:12:23.154Z,24.45
2023-09-15T10:14:54.659Z,23.35
2023-09-15T10:17:25.372Z,23.84
2023-09-15T10:20:03.671Z,24.11
2023-09-15T10:22:35.917Z,23.81
2023-09-15T10:25:19.199Z,24.84
2023-09-15T10:27:50.846Z,24.34
2023-09-15T10:30:19.346Z,24.84
2023-09-15T10:32:54.687Z,24.32
2023-09-15T10:35:24.802Z,24.44
2023-09-15T10:38:00.106Z,24.68
2023-09-15T10:40:28.591Z,24.19
2023-09-15T10:43:10.045Z,24.75
2023-09-15T10:45:40.052Z,24.31
2023-09-15T10:48:13.051Z,24.52
2023-09-15T10:50:41.738Z,24.79
2023-09-15T10:53:10.970Z,24.65
2023-09-15T10:55:39.906Z,24.39
2023-09-15T10:58:08.461Z,24.43
2023-09-15T11:00:37.344Z,25.74
2023-09-15T11:03:08.312Z,24.84
2023-09-15T11:05:41.157Z,24.95
2023-09-15T11:08:10.087Z,24.81
2023-09-15T11:10:41.936Z,24.65
2023-09-15T11:13:13.625Z,24.73
2023-09-15T11:15:41.947Z,24.53
2023-09-15T11:18:13.710Z,25.44
2023-09-15T11:20:43.575Z,25.15
2023-09-15T11:23:11.953Z,24.69
2023-09-15T11:25:40.652Z,24.12
2023-09-15T11:28:15.785Z,24.21
2023-09-15T11:30:44.914Z,24.23
2023-09-15T11:33:21.359Z,24.52
2023-09-15T11:35:51.716Z,24.01
2023-09-15T11:38:23.005Z,24.82
2023-09-15T11:40:57.206Z,25.05
2023-09-15T11:43:26.017Z,23.37
2023-09-15T11:46:01.359Z,23.21
2023-09-15T11:48:31.238Z,24.14
2023-09-15T11:51:05.406Z,24.27
2023-09-15T11:53:39.248Z,25.09
2023-09-15T11:56:11.135Z,25.15
2023-09-15T11:58:39.647Z,23.93
2023-09-15T12:01:08.095Z,24.62
2023-09-15T12:03:39.544Z,24.61
2023-09-15T12:06:18.164Z,24.57
2023-09-15T12:08:52.131Z,24.52
2023-09-15T12:11:21.508Z,24.30
2023-09-15T12:13:55.193Z,24.60
2023-09-15T12:16:28.568Z,24.67
2023-09-15T12:18:58.570Z,25.16
2023-09-15T12:21:29.680Z,24.55
2023-09-15T12:24:12.902Z,24.70
2023-09-15T12:26:43.979Z,24.99
2023-09-15T12:29:12.444Z,24.50
2023-09-15T12:31:43.479Z,24.44
2023-09-15T12:34:21.511Z,24.96
2023-09-15T12:36:54.718Z,25.07
2023-09-15T12:39:26.645Z,24.33
2023-09-15T12:42:14.468Z,23.70
2023-09-15T12:44:45.807Z,24.33
2023-09-15T12:47:15.271Z,24.90
2023-09-15T12:49:49.911Z,24.06
2023-09-15T12:52:25.983Z,24.02
2023-09-15T12:54:54.499Z,24.87
2023-09-15T12:57:23.916Z,24.47
2023-09-15T12:59:55.082Z,23.56
2023-09-15T13:02:25.703Z,23.89
2023-09-15T13:04:57.051Z,23.97
2023-09-15T13:07:26.976Z,23.64
2023-09-15T13:09:55.444Z,24.63
2023-09-15T13:12:23.728Z,24.00
2023-09-15T13:14:52.056Z,23.72
2023-09-15T13:17:20.301Z,24.23
2023-09-15T13:19:48.610Z,24.67
2023-09-15T13:22:17.801Z,24.59
2023-09-15T13:24:50.376Z,24.23
2023-09-15T13:27:21.787Z,24.70
2023-09-15T13:29:58.530Z,25.09
2023-09-15T13:32:27.887Z,25.09
2023-09-15T13:35:12.874Z,25.83
2023-09-15T13:37:42.383Z,24.78
2023-09-15T13:40:12.716Z,24.39
2023-09-15T13:42:43.863Z,24.54
2023-09-15T13:45:14.903Z,25.21
2023-09-15T13:47:47.165Z,24.35
2023-09-15T13:50:15.487Z,24.72
2023-09-15T13:52:51.357Z,24.38
2023-09-15T13:55:21.645Z,24.31
2023-09-15T13:57:50.924Z,23.93
2023-09-15T14:00:20.060Z,24.68
2023-09-15T14:02:57.879Z,24.53
2023-09-15T14:05:26.378Z,24.66
2023-09-15T14:07:54.651Z,24.36
2023-09-15T14:10:24.305Z,24.44
2023-09-15T14:12:52.558Z,24.74
2023-09-15T14:15:21.006Z,25.11
2023-09-15T14:18:01.141Z,24.42
2023-09-15T14:20:32.271Z,24.03
2023-09-15T14:23:03.616Z,24.16
2023-09-15T14:25:36.371Z,24.06
2023-09-15T14:28:05.094Z,24.04
2023-09-15T14:30:42.596Z,24.05
2023-09-15T14:33:13.706Z,24.62
2023-09-15T14:35:42.013Z,24.94
2023-09-15T14:38:18.217Z,24.32
2023-09-15T14:41:31.063Z,24.01
2023-09-15T14:44:00.742Z,24.67
2023-09-15T14:46:38.167Z,24.97
2023-09-15T14:49:15.592Z,24.03
2023-09-15T14:51:50.171Z,24.61
2023-09-15T14:54:19.203Z,23.69
2023-09-15T14:56:54.005Z,23.99
2023-09-15T14:59:26.085Z,24.12
2023-09-15T15:01:57.310Z,24.19
2023-09-15T15:04:28.384Z,24.48
2023-09-15T15:07:03.043Z,24.39
2023-09-15T15:09:31.357Z,23.89
2023-09-15T15:11:59.668Z,23.98
2023-09-15T15:14:29.305Z,23.89
2023-09-15T15:16:59.379Z,24.11
2023-09-15T15:19:27.649Z,23.81
2023-09-15T15:21:59.331Z,23.51
2023-09-15T15:24:34.858Z,23.99
2023-09-15T15:27:04.649Z,23.81
2023-09-15T15:29:39.490Z,23.89
2023-09-15T15:32:08.219Z,24.40
2023-09-15T15:34:42.868Z,24.27
2023-09-15T15:37:11.519Z,24.23
2023-09-15T15:39:43.013Z,24.56
2023-09-15T15:42:15.960Z,23.89
2023-09-15T15:44:45.854Z,24.06
2023-09-15T15:47:14.152Z,24.52
2023-09-15T15:49:45.249Z,23.94
2023-09-15T15:52:13.521Z,24.67
2023-09-15T15:54:44.588Z,23.66
2023-09-15T15:57:12.879Z,24.40
2023-09-15T15:59:43.393Z,24.25
2023-09-15T16:02:19.369Z,24.45
2023-09-15T16:04:48.633Z,23.64
2023-09-15T16:07:25.718Z,24.24
2023-09-15T16:09:59.383Z,23.50
2023-09-15T16:12:33.591Z,23.84
2023-09-15T16:15:02.172Z,24.33
2023-09-15T16:17:41.857Z,22.80
2023-09-15T16:20:13.973Z,23.33
2023-09-15T16:22:44.347Z,23.52
2023-09-15T16:25:12.611Z,24.30
2023-09-15T16:27:41.230Z,25.00
2023-09-15T16:30:13.054Z,25.14
2023-09-15T16:32:43.022Z,24.97
2023-09-15T16:35:13.560Z,24.90
2023-09-15T16:37:44.652Z,24.74
2023-09-15T16:40:14.921Z,23.96
2023-09-15T16:42:51.392Z,24.52
2023-09-15T16:45:19.901Z,24.69
2023-09-15T16:47:53.390Z,24.43
2023-09-15T16:50:33.174Z,24.39
2023-09-15T16:53:04.718Z,24.35
2023-09-15T16:55:38.603Z,24.54
2023-09-15T16:58:11.915Z,24.25
2023-09-15T17:00:43.629Z,24.03
2023-09-15T17:03:16.152Z,23.97
2023-09-15T17:05:44.509Z,23.84
2023-09-15T17:08:15.622Z,24.18
2023-09-15T17:10:46.796Z,24.25
2023-09-15T17:13:18.192Z,24.23
2023-09-15T17:15:49.392Z,24.11
2023-09-15T17:18:21.554Z,23.99
2023-09-15T17:20:49.866Z,24.03
2023-09-15T17:23:20.968Z,24.03
2023-09-15T17:26:04.643Z,23.99
2023-09-15T17:28:32.976Z,23.90
2023-09-15T17:31:04.345Z,23.84
2023-09-15T17:33:43.381Z,23.80
2023-09-15T17:36:15.321Z,23.71
2023-09-15T17:38:46.816Z,23.65
2023-09-15T17:41:18.057Z,23.55
2023-09-15T17:43:46.658Z,23.50
2023-09-15T17:46:15.096Z,23.40
2023-09-15T17:48:48.999Z,23.36
2023-09-15T17:51:17.617Z,23.27
2023-09-15T17:53:46.321Z,23.19
2023-09-15T17:56:14.713Z,23.15
2023-09-15T17:58:42.982Z,23.12
2023-09-15T18:01:14.015Z,23.06
2023-09-15T18:03:49.807Z,23.01
2023-09-15T18:06:19.639Z,22.95
2023-09-15T18:08:59.079Z,22.89
2023-09-15T18:11:35.893Z,22.84
2023-09-15T18:14:09.522Z,22.84
2023-09-15T18:16:40.922Z,22.77
2023-09-15T18:19:15.053Z,22.67
2023-09-15T18:21:45.765Z,22.61
2023-09-15T18:24:17.222Z,22.62
2023-09-15T18:26:45.771Z,22.55
2023-09-15T18:29:14.037Z,22.49
2023-09-15T18:31:45.648Z,22.43
2023-09-15T18:34:15.402Z,22.33
2023-09-15T18:36:44.147Z,22.28
2023-09-15T18:39:12.448Z,22.26
2023-09-15T18:41:42.948Z,22.23
2023-09-15T18:44:11.356Z,22.20
2023-09-15T18:46:39.800Z,22.38
2023-09-15T18:49:10.113Z,22.19
2023-09-15T18:51:45.283Z,22.38
2023-09-15T18:54:16.712Z,22.58
2023-09-15T18:56:48.329Z,22.71
2023-09-15T19:01:46.968Z,22.86
2023-09-15T19:04:15.358Z,22.87
2023-09-15T19:06:45.314Z,22.93
2023-09-15T19:09:16.650Z,22.25
2023-09-15T19:11:44.973Z,22.50
2023-09-15T19:14:13.251Z,22.84
2023-09-15T19:16:48.695Z,23.00
2023-09-15T19:19:20.338Z,23.11
2023-09-15T19:21:50.066Z,23.10
2023-09-15T19:24:18.525Z,23.20
2023-09-15T19:26:49.361Z,23.25
2023-09-15T19:29:24.806Z,23.27
2023-09-15T19:31:55.915Z,23.22
2023-09-15T19:34:24.415Z,23.26
2023-09-15T19:36:54.469Z,23.28
2023-09-15T19:39:22.786Z,23.25
2023-09-15T19:41:57.125Z,23.30
2023-09-15T19:44:27.648Z,23.32
2023-09-15T19:46:58.769Z,23.36
2023-09-15T19:49:30.015Z,23.42
2023-09-15T19:52:02.698Z,23.38
2023-09-15T19:54:37.172Z,23.33
2023-09-15T19:57:08.244Z,23.30
2023-09-15T19:59:39.252Z,23.23
2023-09-15T20:02:12.813Z,23.26
2023-09-15T20:04:41.308Z,23.22
2023-09-15T20:07:11.047Z,23.21
2023-09-15T20:09:39.350Z,23.27
2023-09-15T20:12:10.801Z,23.25
2023-09-15T20:14:40.700Z,23.25
2023-09-15T20:17:14.580Z,23.27
2023-09-15T20:19:43.521Z,23.28
2023-09-15T20:22:13.874Z,23.29
2023-09-15T20:24:42.386Z,23.31
2023-09-15T20:27:10.718Z,23.32
2023-09-15T20:29:38.980Z,23.26
2023-09-15T20:32:13.560Z,23.29
2023-09-15T20:34:42.393Z,23.27
2023-09-15T20:37:14.327Z,23.27
2023-09-15T20:39:42.719Z,23.19
2023-09-15T20:42:14.284Z,23.11
2023-09-15T20:44:45.917Z,23.15
2023-09-15T20:47:14.599Z,23.14
2023-09-15T20:49:43.152Z,23.16
2023-09-15T20:52:12.808Z,23.11
2023-09-15T20:54:44.066Z,23.10
2023-09-15T20:57:12.450Z,23.08
2023-09-15T20:59:41.001Z,23.09
2023-09-15T21:02:09.316Z,23.08
2023-09-15T21:04:37.617Z,23.12
2023-09-15T21:07:16.332Z,23.15
2023-09-15T21:09:54.291Z,23.04
2023-09-15T21:12:22.633Z,22.94
2023-09-15T21:14:51.682Z,22.99
2023-09-15T21:17:27.598Z,23.00
2023-09-15T21:19:58.290Z,23.07
2023-09-15T21:22:27.186Z,23.05
2023-09-15T21:24:56.878Z,23.04
2023-09-15T21:27:25.256Z,23.05
2023-09-15T21:29:56.052Z,23.01
2023-09-15T21:32:25.561Z,23.03
2023-09-15T21:34:53.855Z,23.00
2023-09-15T21:37:24.333Z,22.99
2023-09-15T21:39:52.966Z,23.04
2023-09-15T21:42:23.084Z,23.07
2023-09-15T21:44:59.697Z,23.08
2023-09-15T21:47:31.054Z,23.02
2023-09-15T21:50:11.073Z,23.04
2023-09-15T21:52:40.142Z,22.99
2023-09-15T21:55:09.249Z,22.92
2023-09-15T21:57:45.123Z,22.90
2023-09-15T22:00:26.875Z,22.93
2023-09-15T22:02:59.536Z,22.88
2023-09-15T22:05:28.674Z,22.81
2023-09-15T22:08:02.091Z,22.87
2023-09-15T22:10:36.185Z,22.86
2023-09-15T22:13:06.880Z,22.90
2023-09-15T22:15:38.039Z,22.90
2023-09-15T22:18:07.306Z,22.84
2023-09-15T22:20:37.974Z,22.82
2023-09-15T22:23:12.735Z,22.35
2023-09-15T22:25:53.123Z,22.68
2023-09-15T22:28:29.064Z,22.83
2023-09-15T22:31:11.959Z,22.90
2023-09-15T22:33:40.352Z,22.89
2023-09-15T22:36:17.569Z,22.93
2023-09-15T22:38:45.892Z,22.87
2023-09-15T22:41:18.435Z,22.87
2023-09-15T22:43:48.490Z,22.72
2023-09-15T22:46:19.837Z,22.59
2023-09-15T22:48:51.970Z,22.62
2023-09-15T22:51:23.774Z,22.68
2023-09-15T22:53:52.112Z,22.73
2023-09-15T22:56:23.550Z,22.74
2023-09-15T23:01:21.322Z,22.80
2023-09-15T23:03:49.749Z,22.79
2023-09-15T23:06:18.158Z,22.83
2023-09-15T23:08:54.869Z,22.80
2023-09-15T23:11:23.258Z,22.75
2023-09-15T23:13:52.949Z,22.77
2023-09-15T23:16:24.612Z,22.67
2023-09-15T23:18:55.974Z,22.44
2023-09-15T23:21:24.328Z,22.57
2023-09-15T23:23:52.617Z,22.69
2023-09-15T23:26:27.195Z,22.67
2023-09-15T23:28:57.059Z,22.72
2023-09-15T23:31:25.511Z,22.74
2023-09-15T23:33:54.505Z,22.78
2023-09-15T23:36:31.988Z,22.79
2023-09-15T23:39:00.492Z,22.72
2023-09-15T23:41:34.938Z,22.73
2023-09-15T23:44:04.685Z,22.71
2023-09-15T23:46:33.448Z,22.76
2023-09-15T23:49:05.509Z,22.75
2023-09-15T23:51:34.193Z,22.73
2023-09-15T23:54:08.594Z,22.74
2023-09-15T23:56:39.984Z,22.73
2023-09-15T23:59:09.691Z,22.80
